sensor_id;sensor_type;location;lat;lon;timestamp;P1;durP1;ratioP1;P2;durP2;ratioP2
34928;SDS011;21133;48.048;7.724;2023-03-01T00:00:37;15.60;;;9.67;;
34928;SDS011;21133;48.048;7.724;2023-03-01T00:03:03;10.37;;;9.30;;
34928;SDS011;21133;48.048;7.724;2023-03-01T00:05:29;13.30;;;9.93;;
34928;SDS011;21133;48.048;7.724;2023-03-01T00:07:55;17.00;;;9.47;;
34928;SDS011;21133;48.048;7.724;2023-03-01T00:10:21;14.43;;;9.03;;
34928;SDS011;21133;48.048;7.724;2023-03-01T00:12:48;14.17;;;9.27;;
34928;SDS011;21133;48.048;7.724;2023-03-01T00:15:14;13.23;;;9.57;;
34928;SDS011;21133;48.048;7.724;2023-03-01T00:17:40;7.87;;;7.13;;
34928;SDS011;21133;48.048;7.724;2023-03-01T00:20:06;8.03;;;7.20;;
34928;SDS011;21133;48.048;7.724;2023-03-01T00:22:35;7.13;;;6.43;;
34928;SDS011;21133;48.048;7.724;2023-03-01T00:25:01;6.80;;;6.20;;
34928;SDS011;21133;48.048;7.724;2023-03-01T00:27:26;6.90;;;6.20;;
34928;SDS011;21133;48.048;7.724;2023-03-01T00:29:52;7.57;;;6.97;;
34928;SDS011;21133;48.048;7.724;2023-03-01T00:32:18;7.17;;;6.50;;
34928;SDS011;21133;48.048;7.724;2023-03-01T00:34:45;14.03;;;7.57;;
34928;SDS011;21133;48.048;7.724;2023-03-01T00:37:20;7.47;;;6.77;;
34928;SDS011;21133;48.048;7.724;2023-03-01T00:39:46;7.80;;;6.70;;
34928;SDS011;21133;48.048;7.724;2023-03-01T00:42:12;9.93;;;7.47;;
34928;SDS011;21133;48.048;7.724;2023-03-01T00:44:38;7.97;;;7.07;;
34928;SDS011;21133;48.048;7.724;2023-03-01T00:47:04;12.47;;;7.90;;
34928;SDS011;21133;48.048;7.724;2023-03-01T00:49:30;7.27;;;6.60;;
34928;SDS011;21133;48.048;7.724;2023-03-01T00:51:56;10.60;;;6.70;;
34928;SDS011;21133;48.048;7.724;2023-03-01T00:54:22;6.60;;;6.00;;
34928;SDS011;21133;48.048;7.724;2023-03-01T00:56:47;8.30;;;7.50;;
34928;SDS011;21133;48.048;7.724;2023-03-01T00:59:13;7.77;;;6.97;;
34928;SDS011;21133;48.048;7.724;2023-03-01T01:01:39;7.60;;;7.00;;
34928;SDS011;21133;48.048;7.724;2023-03-01T01:04:07;8.33;;;6.93;;
34928;SDS011;21133;48.048;7.724;2023-03-01T01:06:55;7.87;;;7.07;;
34928;SDS011;21133;48.048;7.724;2023-03-01T01:09:20;7.40;;;6.70;;
34928;SDS011;21133;48.048;7.724;2023-03-01T01:11:47;7.90;;;6.97;;
34928;SDS011;21133;48.048;7.724;2023-03-01T01:14:13;7.87;;;7.23;;
34928;SDS011;21133;48.048;7.724;2023-03-01T01:16:39;7.60;;;7.00;;
34928;SDS011;21133;48.048;7.724;2023-03-01T01:19:05;7.03;;;6.43;;
34928;SDS011;21133;48.048;7.724;2023-03-01T01:21:32;6.23;;;5.80;;
34928;SDS011;21133;48.048;7.724;2023-03-01T01:23:58;7.97;;;7.23;;
34928;SDS011;21133;48.048;7.724;2023-03-01T01:26:29;7.57;;;7.00;;
34928;SDS011;21133;48.048;7.724;2023-03-01T01:28:55;7.93;;;7.13;;
34928;SDS011;21133;48.048;7.724;2023-03-01T01:31:21;8.67;;;7.30;;
34928;SDS011;21133;48.048;7.724;2023-03-01T01:33:53;7.60;;;6.90;;
34928;SDS011;21133;48.048;7.724;2023-03-01T01:36:20;9.30;;;7.40;;
34928;SDS011;21133;48.048;7.724;2023-03-01T01:38:46;6.93;;;6.40;;
34928;SDS011;21133;48.048;7.724;2023-03-01T01:41:12;8.00;;;7.20;;
34928;SDS011;21133;48.048;7.724;2023-03-01T01:43:40;8.27;;;6.60;;
34928;SDS011;21133;48.048;7.724;2023-03-01T01:46:10;6.97;;;6.37;;
34928;SDS011;21133;48.048;7.724;2023-03-01T01:48:45;6.93;;;6.40;;
34928;SDS011;21133;48.048;7.724;2023-03-01T01:51:13;11.57;;;6.47;;
34928;SDS011;21133;48.048;7.724;2023-03-01T01:53:40;7.53;;;6.63;;
34928;SDS011;21133;48.048;7.724;2023-03-01T01:56:08;7.60;;;6.70;;
34928;SDS011;21133;48.048;7.724;2023-03-01T01:58:39;6.37;;;5.80;;
34928;SDS011;21133;48.048;7.724;2023-03-01T02:01:07;8.43;;;7.13;;
34928;SDS011;21133;48.048;7.724;2023-03-01T02:03:33;8.77;;;7.70;;
34928;SDS011;21133;48.048;7.724;2023-03-01T02:08:31;6.77;;;6.27;;
34928;SDS011;21133;48.048;7.724;2023-03-01T02:10:59;6.87;;;6.33;;
34928;SDS011;21133;48.048;7.724;2023-03-01T02:13:25;9.80;;;7.67;;
34928;SDS011;21133;48.048;7.724;2023-03-01T02:15:51;6.50;;;6.07;;
34928;SDS011;21133;48.048;7.724;2023-03-01T02:18:18;6.80;;;6.20;;
34928;SDS011;21133;48.048;7.724;2023-03-01T02:23:11;9.80;;;7.60;;
34928;SDS011;21133;48.048;7.724;2023-03-01T02:25:43;10.10;;;8.30;;
34928;SDS011;21133;48.048;7.724;2023-03-01T02:30:41;7.57;;;6.87;;
34928;SDS011;21133;48.048;7.724;2023-03-01T02:33:28;8.23;;;6.47;;
34928;SDS011;21133;48.048;7.724;2023-03-01T02:35:57;9.33;;;7.27;;
34928;SDS011;21133;48.048;7.724;2023-03-01T02:38:24;9.37;;;7.30;;
34928;SDS011;21133;48.048;7.724;2023-03-01T02:40:50;10.47;;;7.83;;
34928;SDS011;21133;48.048;7.724;2023-03-01T02:43:20;7.60;;;6.90;;
34928;SDS011;21133;48.048;7.724;2023-03-01T02:45:48;7.77;;;7.07;;
34928;SDS011;21133;48.048;7.724;2023-03-01T02:48:15;7.13;;;6.17;;
34928;SDS011;21133;48.048;7.724;2023-03-01T02:53:14;9.43;;;7.30;;
34928;SDS011;21133;48.048;7.724;2023-03-01T02:55:41;8.73;;;7.70;;
34928;SDS011;21133;48.048;7.724;2023-03-01T02:58:07;8.23;;;7.53;;
34928;SDS011;21133;48.048;7.724;2023-03-01T03:00:37;7.13;;;6.63;;
34928;SDS011;21133;48.048;7.724;2023-03-01T03:03:05;9.07;;;7.40;;
34928;SDS011;21133;48.048;7.724;2023-03-01T03:05:31;8.70;;;7.97;;
34928;SDS011;21133;48.048;7.724;2023-03-01T03:07:58;8.87;;;7.10;;
34928;SDS011;21133;48.048;7.724;2023-03-01T03:10:25;10.67;;;7.90;;
34928;SDS011;21133;48.048;7.724;2023-03-01T03:12:58;10.73;;;7.43;;
34928;SDS011;21133;48.048;7.724;2023-03-01T03:15:25;8.20;;;7.40;;
34928;SDS011;21133;48.048;7.724;2023-03-01T03:17:52;10.10;;;7.10;;
34928;SDS011;21133;48.048;7.724;2023-03-01T03:20:20;8.83;;;7.00;;
34928;SDS011;21133;48.048;7.724;2023-03-01T03:22:47;8.43;;;7.30;;
34928;SDS011;21133;48.048;7.724;2023-03-01T03:25:13;10.27;;;7.30;;
34928;SDS011;21133;48.048;7.724;2023-03-01T03:27:41;10.60;;;7.80;;
34928;SDS011;21133;48.048;7.724;2023-03-01T03:30:10;7.70;;;7.10;;
34928;SDS011;21133;48.048;7.724;2023-03-01T03:32:37;9.27;;;7.53;;
34928;SDS011;21133;48.048;7.724;2023-03-01T03:35:04;6.90;;;6.40;;
34928;SDS011;21133;48.048;7.724;2023-03-01T03:37:39;9.23;;;7.60;;
34928;SDS011;21133;48.048;7.724;2023-03-01T03:40:24;9.23;;;7.33;;
34928;SDS011;21133;48.048;7.724;2023-03-01T03:42:50;8.93;;;7.73;;
34928;SDS011;21133;48.048;7.724;2023-03-01T03:45:17;7.80;;;6.40;;
34928;SDS011;21133;48.048;7.724;2023-03-01T03:47:43;11.93;;;7.27;;
34928;SDS011;21133;48.048;7.724;2023-03-01T03:50:10;24.63;;;8.23;;
34928;SDS011;21133;48.048;7.724;2023-03-01T03:52:36;9.60;;;7.40;;
34928;SDS011;21133;48.048;7.724;2023-03-01T03:55:03;10.30;;;6.70;;
34928;SDS011;21133;48.048;7.724;2023-03-01T03:57:34;7.53;;;6.77;;
34928;SDS011;21133;48.048;7.724;2023-03-01T04:00:00;8.80;;;7.97;;
34928;SDS011;21133;48.048;7.724;2023-03-01T04:02:26;9.00;;;8.30;;
34928;SDS011;21133;48.048;7.724;2023-03-01T04:04:52;8.20;;;7.37;;
34928;SDS011;21133;48.048;7.724;2023-03-01T04:07:18;8.60;;;7.00;;
34928;SDS011;21133;48.048;7.724;2023-03-01T04:09:43;14.27;;;7.60;;
34928;SDS011;21133;48.048;7.724;2023-03-01T04:12:10;8.50;;;7.70;;
34928;SDS011;21133;48.048;7.724;2023-03-01T04:14:36;8.33;;;7.67;;
34928;SDS011;21133;48.048;7.724;2023-03-01T04:17:02;7.27;;;6.67;;
34928;SDS011;21133;48.048;7.724;2023-03-01T04:19:30;12.00;;;7.27;;
34928;SDS011;21133;48.048;7.724;2023-03-01T04:22:03;8.20;;;7.40;;
34928;SDS011;21133;48.048;7.724;2023-03-01T04:24:34;9.10;;;7.20;;
34928;SDS011;21133;48.048;7.724;2023-03-01T04:27:00;9.23;;;7.60;;
34928;SDS011;21133;48.048;7.724;2023-03-01T04:29:26;10.50;;;7.80;;
34928;SDS011;21133;48.048;7.724;2023-03-01T04:31:52;7.60;;;6.90;;
34928;SDS011;21133;48.048;7.724;2023-03-01T04:34:18;9.57;;;8.10;;
34928;SDS011;21133;48.048;7.724;2023-03-01T04:36:44;12.20;;;6.70;;
34928;SDS011;21133;48.048;7.724;2023-03-01T04:39:10;8.30;;;7.30;;
34928;SDS011;21133;48.048;7.724;2023-03-01T04:41:39;8.70;;;7.80;;
34928;SDS011;21133;48.048;7.724;2023-03-01T04:44:06;6.53;;;6.03;;
34928;SDS011;21133;48.048;7.724;2023-03-01T04:46:34;9.10;;;7.33;;
34928;SDS011;21133;48.048;7.724;2023-03-01T04:49:00;8.13;;;7.40;;
34928;SDS011;21133;48.048;7.724;2023-03-01T04:51:26;7.20;;;6.67;;
34928;SDS011;21133;48.048;7.724;2023-03-01T04:53:52;12.17;;;7.57;;
34928;SDS011;21133;48.048;7.724;2023-03-01T04:56:19;10.60;;;6.70;;
34928;SDS011;21133;48.048;7.724;2023-03-01T04:58:47;8.13;;;7.30;;
34928;SDS011;21133;48.048;7.724;2023-03-01T05:01:14;7.17;;;6.57;;
34928;SDS011;21133;48.048;7.724;2023-03-01T05:03:44;7.00;;;6.33;;
34928;SDS011;21133;48.048;7.724;2023-03-01T05:06:10;6.83;;;6.23;;
34928;SDS011;21133;48.048;7.724;2023-03-01T05:08:37;8.37;;;7.53;;
34928;SDS011;21133;48.048;7.724;2023-03-01T05:11:03;9.40;;;8.00;;
34928;SDS011;21133;48.048;7.724;2023-03-01T05:13:30;8.10;;;7.03;;
34928;SDS011;21133;48.048;7.724;2023-03-01T05:15:57;7.40;;;6.50;;
34928;SDS011;21133;48.048;7.724;2023-03-01T05:18:25;8.30;;;7.40;;
34928;SDS011;21133;48.048;7.724;2023-03-01T05:20:52;10.43;;;8.57;;
34928;SDS011;21133;48.048;7.724;2023-03-01T05:23:21;9.70;;;7.17;;
34928;SDS011;21133;48.048;7.724;2023-03-01T05:25:47;9.90;;;7.33;;
34928;SDS011;21133;48.048;7.724;2023-03-01T05:28:14;8.53;;;7.40;;
34928;SDS011;21133;48.048;7.724;2023-03-01T05:30:40;11.70;;;8.70;;
34928;SDS011;21133;48.048;7.724;2023-03-01T05:33:07;14.73;;;8.50;;
34928;SDS011;21133;48.048;7.724;2023-03-01T05:35:40;10.77;;;9.70;;
34928;SDS011;21133;48.048;7.724;2023-03-01T05:38:07;10.67;;;8.50;;
34928;SDS011;21133;48.048;7.724;2023-03-01T05:40:33;11.57;;;8.60;;
34928;SDS011;21133;48.048;7.724;2023-03-01T05:42:59;9.70;;;8.70;;
34928;SDS011;21133;48.048;7.724;2023-03-01T05:45:26;5.47;;;5.00;;
34928;SDS011;21133;48.048;7.724;2023-03-01T05:47:52;5.97;;;5.43;;
34928;SDS011;21133;48.048;7.724;2023-03-01T05:50:24;8.43;;;7.50;;
34928;SDS011;21133;48.048;7.724;2023-03-01T05:52:51;10.00;;;8.17;;
34928;SDS011;21133;48.048;7.724;2023-03-01T05:55:18;13.03;;;8.43;;
34928;SDS011;21133;48.048;7.724;2023-03-01T05:57:44;8.43;;;7.63;;
34928;SDS011;21133;48.048;7.724;2023-03-01T06:00:11;10.47;;;8.60;;
34928;SDS011;21133;48.048;7.724;2023-03-01T06:02:37;15.17;;;8.57;;
34928;SDS011;21133;48.048;7.724;2023-03-01T06:05:04;6.87;;;6.30;;
34928;SDS011;21133;48.048;7.724;2023-03-01T06:07:31;8.57;;;7.73;;
34928;SDS011;21133;48.048;7.724;2023-03-01T06:09:57;8.60;;;7.37;;
34928;SDS011;21133;48.048;7.724;2023-03-01T06:12:23;8.87;;;8.00;;
34928;SDS011;21133;48.048;7.724;2023-03-01T06:14:49;12.97;;;7.90;;
34928;SDS011;21133;48.048;7.724;2023-03-01T06:17:15;10.93;;;8.37;;
34928;SDS011;21133;48.048;7.724;2023-03-01T06:19:41;10.27;;;8.07;;
34928;SDS011;21133;48.048;7.724;2023-03-01T06:22:07;9.47;;;8.57;;
34928;SDS011;21133;48.048;7.724;2023-03-01T06:24:33;9.60;;;7.90;;
34928;SDS011;21133;48.048;7.724;2023-03-01T06:26:59;8.10;;;7.30;;
34928;SDS011;21133;48.048;7.724;2023-03-01T06:29:25;11.40;;;8.23;;
34928;SDS011;21133;48.048;7.724;2023-03-01T06:31:51;11.32;;;10.10;;
34928;SDS011;21133;48.048;7.724;2023-03-01T06:34:17;9.00;;;8.20;;
34928;SDS011;21133;48.048;7.724;2023-03-01T06:36:43;10.50;;;9.40;;
34928;SDS011;21133;48.048;7.724;2023-03-01T06:39:09;8.80;;;7.87;;
34928;SDS011;21133;48.048;7.724;2023-03-01T06:41:35;8.07;;;7.13;;
34928;SDS011;21133;48.048;7.724;2023-03-01T06:44:01;9.33;;;7.77;;
34928;SDS011;21133;48.048;7.724;2023-03-01T06:46:27;8.63;;;7.83;;
34928;SDS011;21133;48.048;7.724;2023-03-01T06:48:53;9.33;;;8.43;;
34928;SDS011;21133;48.048;7.724;2023-03-01T06:51:19;10.03;;;9.00;;
34928;SDS011;21133;48.048;7.724;2023-03-01T06:53:45;8.43;;;7.73;;
34928;SDS011;21133;48.048;7.724;2023-03-01T06:56:11;9.00;;;8.10;;
34928;SDS011;21133;48.048;7.724;2023-03-01T06:58:37;10.03;;;9.07;;
34928;SDS011;21133;48.048;7.724;2023-03-01T07:01:07;11.87;;;8.13;;
34928;SDS011;21133;48.048;7.724;2023-03-01T07:03:33;12.70;;;9.43;;
34928;SDS011;21133;48.048;7.724;2023-03-01T07:05:59;7.90;;;7.00;;
34928;SDS011;21133;48.048;7.724;2023-03-01T07:08:25;8.43;;;7.70;;
34928;SDS011;21133;48.048;7.724;2023-03-01T07:10:55;11.87;;;8.63;;
34928;SDS011;21133;48.048;7.724;2023-03-01T07:13:21;8.70;;;7.90;;
34928;SDS011;21133;48.048;7.724;2023-03-01T07:15:47;9.13;;;8.23;;
34928;SDS011;21133;48.048;7.724;2023-03-01T07:18:13;8.47;;;7.67;;
34928;SDS011;21133;48.048;7.724;2023-03-01T07:20:39;10.33;;;7.60;;
34928;SDS011;21133;48.048;7.724;2023-03-01T07:23:05;9.10;;;8.20;;
34928;SDS011;21133;48.048;7.724;2023-03-01T07:25:31;9.43;;;7.23;;
34928;SDS011;21133;48.048;7.724;2023-03-01T07:27:58;14.70;;;8.47;;
34928;SDS011;21133;48.048;7.724;2023-03-01T07:30:24;11.80;;;8.30;;
34928;SDS011;21133;48.048;7.724;2023-03-01T07:32:52;9.40;;;8.47;;
34928;SDS011;21133;48.048;7.724;2023-03-01T07:35:18;10.30;;;8.60;;
34928;SDS011;21133;48.048;7.724;2023-03-01T07:37:44;8.43;;;7.73;;
34928;SDS011;21133;48.048;7.724;2023-03-01T07:40:10;9.10;;;8.13;;
34928;SDS011;21133;48.048;7.724;2023-03-01T07:42:37;9.07;;;8.20;;
34928;SDS011;21133;48.048;7.724;2023-03-01T07:45:03;8.50;;;7.40;;
34928;SDS011;21133;48.048;7.724;2023-03-01T07:47:30;10.47;;;9.47;;
34928;SDS011;21133;48.048;7.724;2023-03-01T07:49:56;9.77;;;8.20;;
34928;SDS011;21133;48.048;7.724;2023-03-01T07:52:22;8.90;;;8.10;;
34928;SDS011;21133;48.048;7.724;2023-03-01T07:54:48;9.27;;;8.47;;
34928;SDS011;21133;48.048;7.724;2023-03-01T07:57:14;8.57;;;7.70;;
34928;SDS011;21133;48.048;7.724;2023-03-01T07:59:40;14.20;;;8.50;;
34928;SDS011;21133;48.048;7.724;2023-03-01T08:02:06;11.13;;;8.73;;
34928;SDS011;21133;48.048;7.724;2023-03-01T08:04:32;10.23;;;9.27;;
34928;SDS011;21133;48.048;7.724;2023-03-01T08:06:58;12.43;;;8.97;;
34928;SDS011;21133;48.048;7.724;2023-03-01T08:09:24;10.83;;;7.80;;
34928;SDS011;21133;48.048;7.724;2023-03-01T08:11:50;8.67;;;7.87;;
34928;SDS011;21133;48.048;7.724;2023-03-01T08:14:16;12.40;;;8.80;;
34928;SDS011;21133;48.048;7.724;2023-03-01T08:16:43;9.77;;;8.77;;
34928;SDS011;21133;48.048;7.724;2023-03-01T08:19:10;14.00;;;7.90;;
34928;SDS011;21133;48.048;7.724;2023-03-01T08:21:36;8.33;;;7.63;;
34928;SDS011;21133;48.048;7.724;2023-03-01T08:24:03;7.50;;;6.90;;
34928;SDS011;21133;48.048;7.724;2023-03-01T08:26:29;10.03;;;8.23;;
34928;SDS011;21133;48.048;7.724;2023-03-01T08:28:55;9.77;;;8.47;;
34928;SDS011;21133;48.048;7.724;2023-03-01T08:34:17;10.83;;;8.50;;
34928;SDS011;21133;48.048;7.724;2023-03-01T08:36:44;9.80;;;8.20;;
34928;SDS011;21133;48.048;7.724;2023-03-01T08:39:11;12.60;;;9.90;;
34928;SDS011;21133;48.048;7.724;2023-03-01T08:41:38;9.77;;;8.50;;
34928;SDS011;21133;48.048;7.724;2023-03-01T08:44:04;9.93;;;8.30;;
34928;SDS011;21133;48.048;7.724;2023-03-01T08:46:32;16.40;;;9.30;;
34928;SDS011;21133;48.048;7.724;2023-03-01T08:48:58;12.67;;;9.80;;
34928;SDS011;21133;48.048;7.724;2023-03-01T08:51:24;11.80;;;9.70;;
34928;SDS011;21133;48.048;7.724;2023-03-01T08:53:50;9.30;;;8.20;;
34928;SDS011;21133;48.048;7.724;2023-03-01T08:56:17;10.27;;;8.70;;
34928;SDS011;21133;48.048;7.724;2023-03-01T08:58:47;8.90;;;6.90;;
34928;SDS011;21133;48.048;7.724;2023-03-01T09:01:17;9.83;;;8.73;;
34928;SDS011;21133;48.048;7.724;2023-03-01T09:03:43;9.70;;;8.73;;
34928;SDS011;21133;48.048;7.724;2023-03-01T09:06:10;9.03;;;8.33;;
34928;SDS011;21133;48.048;7.724;2023-03-01T09:08:37;9.40;;;8.50;;
34928;SDS011;21133;48.048;7.724;2023-03-01T09:11:06;11.27;;;9.07;;
34928;SDS011;21133;48.048;7.724;2023-03-01T09:13:33;10.23;;;9.17;;
34928;SDS011;21133;48.048;7.724;2023-03-01T09:16:00;19.60;;;9.33;;
34928;SDS011;21133;48.048;7.724;2023-03-01T09:18:26;12.07;;;9.10;;
34928;SDS011;21133;48.048;7.724;2023-03-01T09:20:52;7.67;;;6.03;;
34928;SDS011;21133;48.048;7.724;2023-03-01T09:23:21;10.57;;;8.47;;
34928;SDS011;21133;48.048;7.724;2023-03-01T09:25:47;9.17;;;8.27;;
34928;SDS011;21133;48.048;7.724;2023-03-01T09:28:13;10.60;;;8.67;;
34928;SDS011;21133;48.048;7.724;2023-03-01T09:30:39;14.63;;;10.37;;
34928;SDS011;21133;48.048;7.724;2023-03-01T09:33:05;9.87;;;8.97;;
34928;SDS011;21133;48.048;7.724;2023-03-01T09:35:31;10.70;;;9.57;;
34928;SDS011;21133;48.048;7.724;2023-03-01T09:37:58;11.70;;;9.97;;
34928;SDS011;21133;48.048;7.724;2023-03-01T09:40:25;9.20;;;8.23;;
34928;SDS011;21133;48.048;7.724;2023-03-01T09:42:57;9.87;;;8.93;;
34928;SDS011;21133;48.048;7.724;2023-03-01T09:45:34;14.20;;;9.90;;
34928;SDS011;21133;48.048;7.724;2023-03-01T09:48:01;14.40;;;8.70;;
34928;SDS011;21133;48.048;7.724;2023-03-01T09:50:32;10.80;;;9.30;;
34928;SDS011;21133;48.048;7.724;2023-03-01T09:53:06;20.83;;;11.70;;
34928;SDS011;21133;48.048;7.724;2023-03-01T09:55:37;18.80;;;10.70;;
34928;SDS011;21133;48.048;7.724;2023-03-01T10:00:49;9.07;;;8.27;;
34928;SDS011;21133;48.048;7.724;2023-03-01T10:11:01;11.67;;;9.30;;
34928;SDS011;21133;48.048;7.724;2023-03-01T10:16:01;11.90;;;10.07;;
34928;SDS011;21133;48.048;7.724;2023-03-01T10:18:29;11.17;;;9.10;;
34928;SDS011;21133;48.048;7.724;2023-03-01T10:21:01;13.97;;;10.90;;
34928;SDS011;21133;48.048;7.724;2023-03-01T10:23:29;19.97;;;10.30;;
34928;SDS011;21133;48.048;7.724;2023-03-01T10:26:01;12.37;;;10.00;;
34928;SDS011;21133;48.048;7.724;2023-03-01T10:28:31;11.23;;;9.00;;
34928;SDS011;21133;48.048;7.724;2023-03-01T10:31:00;13.30;;;10.00;;
34928;SDS011;21133;48.048;7.724;2023-03-01T10:33:27;10.07;;;9.10;;
34928;SDS011;21133;48.048;7.724;2023-03-01T10:35:55;10.70;;;9.50;;
34928;SDS011;21133;48.048;7.724;2023-03-01T10:38:21;15.07;;;10.10;;
34928;SDS011;21133;48.048;7.724;2023-03-01T10:43:16;12.80;;;10.50;;
34928;SDS011;21133;48.048;7.724;2023-03-01T10:45:43;16.87;;;11.03;;
34928;SDS011;21133;48.048;7.724;2023-03-01T10:48:17;10.17;;;9.17;;
34928;SDS011;21133;48.048;7.724;2023-03-01T10:50:48;10.93;;;8.13;;
34928;SDS011;21133;48.048;7.724;2023-03-01T10:53:21;10.07;;;9.17;;
34928;SDS011;21133;48.048;7.724;2023-03-01T10:55:56;12.33;;;8.63;;
34928;SDS011;21133;48.048;7.724;2023-03-01T10:58:22;11.27;;;9.87;;
34928;SDS011;21133;48.048;7.724;2023-03-01T11:03:16;11.73;;;8.83;;
34928;SDS011;21133;48.048;7.724;2023-03-01T11:05:54;16.43;;;10.43;;
34928;SDS011;21133;48.048;7.724;2023-03-01T11:08:37;11.93;;;10.10;;
34928;SDS011;21133;48.048;7.724;2023-03-01T11:16:34;14.43;;;10.10;;
34928;SDS011;21133;48.048;7.724;2023-03-01T11:24:37;13.10;;;9.50;;
34928;SDS011;21133;48.048;7.724;2023-03-01T11:27:04;11.53;;;10.30;;
34928;SDS011;21133;48.048;7.724;2023-03-01T11:29:35;18.47;;;10.90;;
34928;SDS011;21133;48.048;7.724;2023-03-01T11:32:04;12.73;;;10.80;;
34928;SDS011;21133;48.048;7.724;2023-03-01T11:34:42;16.43;;;10.33;;
34928;SDS011;21133;48.048;7.724;2023-03-01T11:37:12;12.13;;;10.03;;
34928;SDS011;21133;48.048;7.724;2023-03-01T11:39:47;13.77;;;11.83;;
34928;SDS011;21133;48.048;7.724;2023-03-01T11:42:19;12.07;;;10.70;;
34928;SDS011;21133;48.048;7.724;2023-03-01T11:44:47;13.73;;;10.13;;
34928;SDS011;21133;48.048;7.724;2023-03-01T11:50:07;12.43;;;9.97;;
34928;SDS011;21133;48.048;7.724;2023-03-01T12:07:46;9.87;;;8.87;;
34928;SDS011;21133;48.048;7.724;2023-03-01T12:20:35;13.30;;;11.40;;
34928;SDS011;21133;48.048;7.724;2023-03-01T12:25:34;10.27;;;8.83;;
34928;SDS011;21133;48.048;7.724;2023-03-01T12:38:38;11.17;;;9.93;;
34928;SDS011;21133;48.048;7.724;2023-03-01T12:41:10;12.70;;;10.47;;
34928;SDS011;21133;48.048;7.724;2023-03-01T12:46:28;12.50;;;9.30;;
34928;SDS011;21133;48.048;7.724;2023-03-01T12:49:17;13.47;;;11.77;;
34928;SDS011;21133;48.048;7.724;2023-03-01T12:51:50;17.23;;;10.67;;
34928;SDS011;21133;48.048;7.724;2023-03-01T12:54:30;11.87;;;9.47;;
34928;SDS011;21133;48.048;7.724;2023-03-01T12:57:08;22.13;;;9.97;;
34928;SDS011;21133;48.048;7.724;2023-03-01T12:59:40;12.47;;;11.13;;
34928;SDS011;21133;48.048;7.724;2023-03-01T13:02:13;14.40;;;10.10;;
34928;SDS011;21133;48.048;7.724;2023-03-01T13:07:39;11.40;;;8.93;;
34928;SDS011;21133;48.048;7.724;2023-03-01T13:10:21;12.03;;;10.73;;
34928;SDS011;21133;48.048;7.724;2023-03-01T13:17:52;15.33;;;9.90;;
34928;SDS011;21133;48.048;7.724;2023-03-01T13:21:04;13.50;;;10.70;;
34928;SDS011;21133;48.048;7.724;2023-03-01T13:31:03;11.30;;;10.10;;
34928;SDS011;21133;48.048;7.724;2023-03-01T13:35:55;15.70;;;10.40;;
34928;SDS011;21133;48.048;7.724;2023-03-01T13:41:09;16.87;;;11.17;;
34928;SDS011;21133;48.048;7.724;2023-03-01T13:43:35;13.67;;;10.30;;
34928;SDS011;21133;48.048;7.724;2023-03-01T13:46:07;21.60;;;11.50;;
34928;SDS011;21133;48.048;7.724;2023-03-01T13:48:34;14.30;;;10.73;;
34928;SDS011;21133;48.048;7.724;2023-03-01T13:51:02;14.93;;;11.60;;
34928;SDS011;21133;48.048;7.724;2023-03-01T13:53:33;12.73;;;10.50;;
34928;SDS011;21133;48.048;7.724;2023-03-01T13:56:01;16.23;;;11.80;;
34928;SDS011;21133;48.048;7.724;2023-03-01T13:58:32;10.30;;;9.20;;
34928;SDS011;21133;48.048;7.724;2023-03-01T14:01:04;16.07;;;10.57;;
34928;SDS011;21133;48.048;7.724;2023-03-01T14:03:32;19.07;;;13.13;;
34928;SDS011;21133;48.048;7.724;2023-03-01T14:08:28;23.10;;;12.07;;
34928;SDS011;21133;48.048;7.724;2023-03-01T14:11:04;15.33;;;11.50;;
34928;SDS011;21133;48.048;7.724;2023-03-01T14:21:17;18.17;;;13.27;;
34928;SDS011;21133;48.048;7.724;2023-03-01T14:23:43;12.40;;;11.10;;
34928;SDS011;21133;48.048;7.724;2023-03-01T14:26:09;17.23;;;11.80;;
34928;SDS011;21133;48.048;7.724;2023-03-01T14:28:37;17.47;;;11.33;;
34928;SDS011;21133;48.048;7.724;2023-03-01T14:31:21;15.47;;;12.17;;
34928;SDS011;21133;48.048;7.724;2023-03-01T14:33:54;13.93;;;12.47;;
34928;SDS011;21133;48.048;7.724;2023-03-01T14:36:25;16.20;;;11.07;;
34928;SDS011;21133;48.048;7.724;2023-03-01T14:38:51;16.43;;;12.10;;
34928;SDS011;21133;48.048;7.724;2023-03-01T14:41:21;17.00;;;13.70;;
34928;SDS011;21133;48.048;7.724;2023-03-01T14:43:55;17.50;;;13.17;;
34928;SDS011;21133;48.048;7.724;2023-03-01T14:46:24;13.70;;;12.13;;
34928;SDS011;21133;48.048;7.724;2023-03-01T14:48:53;30.23;;;12.07;;
34928;SDS011;21133;48.048;7.724;2023-03-01T14:51:20;17.47;;;12.10;;
34928;SDS011;21133;48.048;7.724;2023-03-01T14:53:46;15.73;;;12.50;;
34928;SDS011;21133;48.048;7.724;2023-03-01T14:56:13;15.53;;;11.03;;
34928;SDS011;21133;48.048;7.724;2023-03-01T14:58:39;16.60;;;12.13;;
34928;SDS011;21133;48.048;7.724;2023-03-01T15:01:05;10.53;;;9.00;;
34928;SDS011;21133;48.048;7.724;2023-03-01T15:03:43;12.77;;;11.17;;
34928;SDS011;21133;48.048;7.724;2023-03-01T15:06:10;22.97;;;13.53;;
34928;SDS011;21133;48.048;7.724;2023-03-01T15:08:37;17.50;;;12.70;;
34928;SDS011;21133;48.048;7.724;2023-03-01T15:13:47;18.63;;;12.77;;
34928;SDS011;21133;48.048;7.724;2023-03-01T15:16:13;15.40;;;11.10;;
34928;SDS011;21133;48.048;7.724;2023-03-01T15:18:43;17.50;;;12.77;;
34928;SDS011;21133;48.048;7.724;2023-03-01T15:21:26;16.17;;;12.87;;
34928;SDS011;21133;48.048;7.724;2023-03-01T15:23:58;20.00;;;13.70;;
34928;SDS011;21133;48.048;7.724;2023-03-01T15:26:30;15.00;;;12.03;;
34928;SDS011;21133;48.048;7.724;2023-03-01T15:28:57;13.47;;;10.80;;
34928;SDS011;21133;48.048;7.724;2023-03-01T15:31:42;17.97;;;13.83;;
34928;SDS011;21133;48.048;7.724;2023-03-01T15:34:21;11.63;;;10.43;;
34928;SDS011;21133;48.048;7.724;2023-03-01T15:36:48;22.33;;;14.67;;
34928;SDS011;21133;48.048;7.724;2023-03-01T15:39:30;15.33;;;11.87;;
34928;SDS011;21133;48.048;7.724;2023-03-01T15:44:31;15.63;;;12.67;;
34928;SDS011;21133;48.048;7.724;2023-03-01T15:46:58;18.20;;;13.40;;
34928;SDS011;21133;48.048;7.724;2023-03-01T15:51:51;19.73;;;12.80;;
34928;SDS011;21133;48.048;7.724;2023-03-01T15:54:20;19.93;;;13.40;;
34928;SDS011;21133;48.048;7.724;2023-03-01T15:56:46;16.60;;;13.47;;
34928;SDS011;21133;48.048;7.724;2023-03-01T15:59:13;15.00;;;13.10;;
34928;SDS011;21133;48.048;7.724;2023-03-01T16:01:43;21.70;;;13.57;;
34928;SDS011;21133;48.048;7.724;2023-03-01T16:04:11;16.83;;;12.00;;
34928;SDS011;21133;48.048;7.724;2023-03-01T16:06:45;15.53;;;13.40;;
34928;SDS011;21133;48.048;7.724;2023-03-01T16:09:12;15.40;;;11.27;;
34928;SDS011;21133;48.048;7.724;2023-03-01T16:11:38;15.23;;;12.53;;
34928;SDS011;21133;48.048;7.724;2023-03-01T16:14:05;18.80;;;14.80;;
34928;SDS011;21133;48.048;7.724;2023-03-01T16:16:31;19.40;;;14.60;;
34928;SDS011;21133;48.048;7.724;2023-03-01T16:18:57;23.03;;;15.70;;
34928;SDS011;21133;48.048;7.724;2023-03-01T16:21:23;20.03;;;14.37;;
34928;SDS011;21133;48.048;7.724;2023-03-01T16:26:53;18.53;;;14.23;;
34928;SDS011;21133;48.048;7.724;2023-03-01T16:29:19;23.53;;;13.60;;
34928;SDS011;21133;48.048;7.724;2023-03-01T16:31:45;18.77;;;14.07;;
34928;SDS011;21133;48.048;7.724;2023-03-01T16:34:12;24.37;;;13.97;;
34928;SDS011;21133;48.048;7.724;2023-03-01T16:36:38;14.50;;;11.70;;
34928;SDS011;21133;48.048;7.724;2023-03-01T16:39:04;15.80;;;12.70;;
34928;SDS011;21133;48.048;7.724;2023-03-01T16:41:31;20.73;;;13.40;;
34928;SDS011;21133;48.048;7.724;2023-03-01T16:43:57;22.20;;;13.17;;
34928;SDS011;21133;48.048;7.724;2023-03-01T16:46:25;23.53;;;14.93;;
34928;SDS011;21133;48.048;7.724;2023-03-01T16:48:52;17.13;;;12.50;;